sensor_id;sensor_type;location;lat;lon;timestamp;P1;durP1;ratioP1;P2;durP2;ratioP2
12248;SDS011;6187;50.778;6.142;2023-08-31T00:01:05;3.60;;;2.50;;
12248;SDS011;6187;50.778;6.142;2023-08-31T00:03:33;2.30;;;2.03;;
12248;SDS011;6187;50.778;6.142;2023-08-31T00:06:02;2.63;;;2.30;;
12248;SDS011;6187;50.778;6.142;2023-08-31T00:08:34;2.90;;;2.67;;
12248;SDS011;6187;50.778;6.142;2023-08-31T00:11:02;3.70;;;2.30;;
12248;SDS011;6187;50.778;6.142;2023-08-31T00:13:31;3.13;;;2.37;;
12248;SDS011;6187;50.778;6.142;2023-08-31T00:16:01;3.70;;;2.23;;
12248;SDS011;6187;50.778;6.142;2023-08-31T00:18:31;2.30;;;2.10;;
12248;SDS011;6187;50.778;6.142;2023-08-31T00:21:02;2.77;;;2.00;;
12248;SDS011;6187;50.778;6.142;2023-08-31T00:23:31;2.97;;;2.40;;
12248;SDS011;6187;50.778;6.142;2023-08-31T00:25:59;3.73;;;2.40;;
12248;SDS011;6187;50.778;6.142;2023-08-31T00:28:28;2.30;;;1.90;;
12248;SDS011;6187;50.778;6.142;2023-08-31T00:30:56;3.73;;;2.07;;
12248;SDS011;6187;50.778;6.142;2023-08-31T00:33:26;2.43;;;2.20;;
12248;SDS011;6187;50.778;6.142;2023-08-31T00:35:55;2.93;;;2.10;;
12248;SDS011;6187;50.778;6.142;2023-08-31T00:38:24;3.83;;;2.10;;
12248;SDS011;6187;50.778;6.142;2023-08-31T00:40:52;3.00;;;1.87;;
12248;SDS011;6187;50.778;6.142;2023-08-31T00:43:21;3.10;;;2.10;;
12248;SDS011;6187;50.778;6.142;2023-08-31T00:45:51;2.07;;;1.80;;
12248;SDS011;6187;50.778;6.142;2023-08-31T00:48:20;2.70;;;1.80;;
12248;SDS011;6187;50.778;6.142;2023-08-31T00:50:50;1.93;;;1.63;;
12248;SDS011;6187;50.778;6.142;2023-08-31T00:53:19;3.23;;;1.70;;
12248;SDS011;6187;50.778;6.142;2023-08-31T00:55:48;2.00;;;1.60;;
12248;SDS011;6187;50.778;6.142;2023-08-31T00:58:16;1.87;;;1.70;;
12248;SDS011;6187;50.778;6.142;2023-08-31T01:00:46;1.90;;;1.60;;
12248;SDS011;6187;50.778;6.142;2023-08-31T01:03:19;2.50;;;1.60;;
12248;SDS011;6187;50.778;6.142;2023-08-31T01:05:54;1.67;;;1.50;;
12248;SDS011;6187;50.778;6.142;2023-08-31T01:08:28;2.07;;;1.87;;
12248;SDS011;6187;50.778;6.142;2023-08-31T01:11:01;2.57;;;1.80;;
12248;SDS011;6187;50.778;6.142;2023-08-31T01:13:32;2.27;;;1.70;;
12248;SDS011;6187;50.778;6.142;2023-08-31T01:16:03;2.90;;;1.97;;
12248;SDS011;6187;50.778;6.142;2023-08-31T01:18:34;2.40;;;2.10;;
12248;SDS011;6187;50.778;6.142;2023-08-31T01:21:08;3.17;;;2.00;;
12248;SDS011;6187;50.778;6.142;2023-08-31T01:23:53;3.17;;;2.10;;
12248;SDS011;6187;50.778;6.142;2023-08-31T01:26:22;2.60;;;2.30;;
12248;SDS011;6187;50.778;6.142;2023-08-31T01:28:51;3.90;;;2.30;;
12248;SDS011;6187;50.778;6.142;2023-08-31T01:31:20;2.57;;;2.23;;
12248;SDS011;6187;50.778;6.142;2023-08-31T01:33:49;3.17;;;2.50;;
12248;SDS011;6187;50.778;6.142;2023-08-31T01:36:20;4.33;;;2.60;;
12248;SDS011;6187;50.778;6.142;2023-08-31T01:38:50;3.40;;;2.60;;
12248;SDS011;6187;50.778;6.142;2023-08-31T01:41:22;2.67;;;2.33;;
12248;SDS011;6187;50.778;6.142;2023-08-31T01:43:52;3.83;;;2.63;;
12248;SDS011;6187;50.778;6.142;2023-08-31T01:46:20;3.30;;;3.00;;
12248;SDS011;6187;50.778;6.142;2023-08-31T01:48:49;6.07;;;3.17;;
12248;SDS011;6187;50.778;6.142;2023-08-31T01:51:18;3.10;;;2.53;;
12248;SDS011;6187;50.778;6.142;2023-08-31T01:53:46;2.60;;;2.40;;
12248;SDS011;6187;50.778;6.142;2023-08-31T01:56:15;4.00;;;2.70;;
12248;SDS011;6187;50.778;6.142;2023-08-31T01:58:45;4.57;;;3.43;;
12248;SDS011;6187;50.778;6.142;2023-08-31T02:01:14;3.73;;;2.97;;
12248;SDS011;6187;50.778;6.142;2023-08-31T02:03:44;3.33;;;2.70;;
12248;SDS011;6187;50.778;6.142;2023-08-31T02:06:13;3.17;;;2.80;;
12248;SDS011;6187;50.778;6.142;2023-08-31T02:08:41;2.73;;;2.53;;
12248;SDS011;6187;50.778;6.142;2023-08-31T02:11:14;3.83;;;2.90;;
12248;SDS011;6187;50.778;6.142;2023-08-31T02:13:42;2.80;;;2.50;;
12248;SDS011;6187;50.778;6.142;2023-08-31T02:16:12;3.70;;;2.97;;
12248;SDS011;6187;50.778;6.142;2023-08-31T02:18:41;4.00;;;3.23;;
12248;SDS011;6187;50.778;6.142;2023-08-31T02:21:09;3.93;;;3.07;;
12248;SDS011;6187;50.778;6.142;2023-08-31T02:23:39;3.90;;;3.53;;
12248;SDS011;6187;50.778;6.142;2023-08-31T02:26:07;4.17;;;3.40;;
12248;SDS011;6187;50.778;6.142;2023-08-31T02:28:36;3.63;;;3.00;;
12248;SDS011;6187;50.778;6.142;2023-08-31T02:31:05;6.50;;;3.67;;
12248;SDS011;6187;50.778;6.142;2023-08-31T02:33:35;3.70;;;3.23;;
12248;SDS011;6187;50.778;6.142;2023-08-31T02:36:03;3.87;;;3.27;;
12248;SDS011;6187;50.778;6.142;2023-08-31T02:38:32;4.67;;;2.97;;
12248;SDS011;6187;50.778;6.142;2023-08-31T02:41:01;3.33;;;3.03;;
12248;SDS011;6187;50.778;6.142;2023-08-31T02:43:29;3.63;;;3.30;;
12248;SDS011;6187;50.778;6.142;2023-08-31T02:45:59;4.57;;;3.27;;
12248;SDS011;6187;50.778;6.142;2023-08-31T02:48:28;3.83;;;3.23;;
12248;SDS011;6187;50.778;6.142;2023-08-31T02:50:59;3.97;;;2.97;;
12248;SDS011;6187;50.778;6.142;2023-08-31T02:53:29;3.27;;;2.93;;
12248;SDS011;6187;50.778;6.142;2023-08-31T02:55:58;3.60;;;3.00;;
12248;SDS011;6187;50.778;6.142;2023-08-31T02:58:26;4.40;;;3.33;;
12248;SDS011;6187;50.778;6.142;2023-08-31T03:00:55;3.93;;;2.90;;
12248;SDS011;6187;50.778;6.142;2023-08-31T03:03:24;4.60;;;3.00;;
12248;SDS011;6187;50.778;6.142;2023-08-31T03:05:54;3.93;;;3.27;;
12248;SDS011;6187;50.778;6.142;2023-08-31T03:08:25;5.70;;;3.10;;
12248;SDS011;6187;50.778;6.142;2023-08-31T03:10:56;3.10;;;2.77;;
12248;SDS011;6187;50.778;6.142;2023-08-31T03:13:25;3.37;;;3.07;;
12248;SDS011;6187;50.778;6.142;2023-08-31T03:15:54;3.70;;;2.90;;
12248;SDS011;6187;50.778;6.142;2023-08-31T03:18:24;4.40;;;3.17;;
12248;SDS011;6187;50.778;6.142;2023-08-31T03:20:52;3.77;;;2.90;;
12248;SDS011;6187;50.778;6.142;2023-08-31T03:23:21;3.93;;;3.10;;
12248;SDS011;6187;50.778;6.142;2023-08-31T03:25:51;4.30;;;3.00;;
12248;SDS011;6187;50.778;6.142;2023-08-31T03:28:20;3.63;;;3.17;;
12248;SDS011;6187;50.778;6.142;2023-08-31T03:30:53;4.03;;;2.97;;
12248;SDS011;6187;50.778;6.142;2023-08-31T03:33:22;4.40;;;2.87;;
12248;SDS011;6187;50.778;6.142;2023-08-31T03:35:51;3.43;;;2.97;;
12248;SDS011;6187;50.778;6.142;2023-08-31T03:38:19;3.30;;;2.47;;
12248;SDS011;6187;50.778;6.142;2023-08-31T03:40:55;2.87;;;2.50;;
12248;SDS011;6187;50.778;6.142;2023-08-31T03:43:24;2.97;;;2.70;;
12248;SDS011;6187;50.778;6.142;2023-08-31T03:45:53;3.43;;;2.97;;
12248;SDS011;6187;50.778;6.142;2023-08-31T03:48:23;3.80;;;2.50;;
12248;SDS011;6187;50.778;6.142;2023-08-31T03:50:52;3.30;;;2.63;;
12248;SDS011;6187;50.778;6.142;2023-08-31T03:53:21;2.93;;;2.63;;
12248;SDS011;6187;50.778;6.142;2023-08-31T03:55:49;3.40;;;2.90;;
12248;SDS011;6187;50.778;6.142;2023-08-31T03:58:19;4.30;;;2.93;;
12248;SDS011;6187;50.778;6.142;2023-08-31T04:00:48;4.20;;;2.27;;
12248;SDS011;6187;50.778;6.142;2023-08-31T04:03:17;4.30;;;2.97;;
12248;SDS011;6187;50.778;6.142;2023-08-31T04:05:46;3.00;;;2.57;;
12248;SDS011;6187;50.778;6.142;2023-08-31T04:08:15;4.53;;;2.70;;
12248;SDS011;6187;50.778;6.142;2023-08-31T04:10:43;3.00;;;2.50;;
12248;SDS011;6187;50.778;6.142;2023-08-31T04:13:12;4.27;;;2.63;;
12248;SDS011;6187;50.778;6.142;2023-08-31T04:15:42;2.73;;;2.50;;
12248;SDS011;6187;50.778;6.142;2023-08-31T04:18:11;5.17;;;2.30;;
12248;SDS011;6187;50.778;6.142;2023-08-31T04:20:46;3.60;;;2.80;;
12248;SDS011;6187;50.778;6.142;2023-08-31T04:23:14;3.43;;;2.60;;
12248;SDS011;6187;50.778;6.142;2023-08-31T04:25:43;3.60;;;2.77;;
12248;SDS011;6187;50.778;6.142;2023-08-31T04:28:11;2.83;;;2.27;;
12248;SDS011;6187;50.778;6.142;2023-08-31T04:30:40;3.47;;;2.17;;
12248;SDS011;6187;50.778;6.142;2023-08-31T04:33:11;3.67;;;2.47;;
12248;SDS011;6187;50.778;6.142;2023-08-31T04:35:40;3.17;;;2.27;;
12248;SDS011;6187;50.778;6.142;2023-08-31T04:38:09;3.23;;;2.20;;
12248;SDS011;6187;50.778;6.142;2023-08-31T04:40:37;2.67;;;2.43;;
12248;SDS011;6187;50.778;6.142;2023-08-31T04:43:06;3.03;;;2.53;;
12248;SDS011;6187;50.778;6.142;2023-08-31T04:45:35;3.30;;;2.00;;
12248;SDS011;6187;50.778;6.142;2023-08-31T04:48:04;2.47;;;2.20;;
12248;SDS011;6187;50.778;6.142;2023-08-31T04:50:34;2.93;;;2.10;;
12248;SDS011;6187;50.778;6.142;2023-08-31T04:53:03;2.67;;;1.90;;
12248;SDS011;6187;50.778;6.142;2023-08-31T04:55:32;2.40;;;2.00;;
12248;SDS011;6187;50.778;6.142;2023-08-31T04:58:00;2.60;;;2.20;;
12248;SDS011;6187;50.778;6.142;2023-08-31T05:00:29;2.70;;;2.23;;
12248;SDS011;6187;50.778;6.142;2023-08-31T05:02:58;2.20;;;2.00;;
12248;SDS011;6187;50.778;6.142;2023-08-31T05:05:26;4.87;;;2.60;;
12248;SDS011;6187;50.778;6.142;2023-08-31T05:07:56;3.70;;;2.03;;
12248;SDS011;6187;50.778;6.142;2023-08-31T05:10:25;2.13;;;1.93;;
12248;SDS011;6187;50.778;6.142;2023-08-31T05:12:54;4.13;;;2.23;;
12248;SDS011;6187;50.778;6.142;2023-08-31T05:15:23;5.43;;;2.20;;
12248;SDS011;6187;50.778;6.142;2023-08-31T05:17:54;3.53;;;2.23;;
12248;SDS011;6187;50.778;6.142;2023-08-31T05:20:23;3.87;;;2.13;;
12248;SDS011;6187;50.778;6.142;2023-08-31T05:22:51;2.53;;;2.03;;
12248;SDS011;6187;50.778;6.142;2023-08-31T05:25:21;4.20;;;1.97;;
12248;SDS011;6187;50.778;6.142;2023-08-31T05:27:53;3.30;;;1.97;;
12248;SDS011;6187;50.778;6.142;2023-08-31T05:30:21;2.87;;;1.80;;
12248;SDS011;6187;50.778;6.142;2023-08-31T05:32:50;2.50;;;1.83;;
12248;SDS011;6187;50.778;6.142;2023-08-31T05:35:19;3.17;;;1.80;;
12248;SDS011;6187;50.778;6.142;2023-08-31T05:37:48;3.00;;;1.93;;
12248;SDS011;6187;50.778;6.142;2023-08-31T05:40:17;2.40;;;1.50;;
12248;SDS011;6187;50.778;6.142;2023-08-31T05:42:47;2.67;;;1.70;;
12248;SDS011;6187;50.778;6.142;2023-08-31T05:45:15;2.30;;;1.70;;
12248;SDS011;6187;50.778;6.142;2023-08-31T05:47:44;2.70;;;1.63;;
12248;SDS011;6187;50.778;6.142;2023-08-31T05:50:13;2.63;;;1.83;;
12248;SDS011;6187;50.778;6.142;2023-08-31T05:52:42;2.70;;;1.63;;
12248;SDS011;6187;50.778;6.142;2023-08-31T05:55:10;2.83;;;1.90;;
12248;SDS011;6187;50.778;6.142;2023-08-31T05:57:39;2.63;;;1.83;;
12248;SDS011;6187;50.778;6.142;2023-08-31T06:00:09;3.47;;;2.03;;
12248;SDS011;6187;50.778;6.142;2023-08-31T06:02:39;2.27;;;1.60;;
12248;SDS011;6187;50.778;6.142;2023-08-31T06:05:08;3.80;;;1.57;;
12248;SDS011;6187;50.778;6.142;2023-08-31T06:07:38;2.23;;;1.70;;
12248;SDS011;6187;50.778;6.142;2023-08-31T06:10:07;3.60;;;1.77;;
12248;SDS011;6187;50.778;6.142;2023-08-31T06:12:36;2.47;;;1.80;;
12248;SDS011;6187;50.778;6.142;2023-08-31T06:15:05;3.80;;;1.93;;
12248;SDS011;6187;50.778;6.142;2023-08-31T06:17:35;2.00;;;1.70;;
12248;SDS011;6187;50.778;6.142;2023-08-31T06:20:04;4.80;;;1.63;;
12248;SDS011;6187;50.778;6.142;2023-08-31T06:22:35;3.70;;;2.00;;
12248;SDS011;6187;50.778;6.142;2023-08-31T06:25:04;2.03;;;1.47;;
12248;SDS011;6187;50.778;6.142;2023-08-31T06:27:33;3.40;;;1.93;;
12248;SDS011;6187;50.778;6.142;2023-08-31T06:30:02;1.97;;;1.57;;
12248;SDS011;6187;50.778;6.142;2023-08-31T06:32:31;5.97;;;1.90;;
12248;SDS011;6187;50.778;6.142;2023-08-31T06:35:02;3.33;;;1.60;;
12248;SDS011;6187;50.778;6.142;2023-08-31T06:37:30;2.57;;;1.60;;
12248;SDS011;6187;50.778;6.142;2023-08-31T06:39:59;2.63;;;1.73;;
12248;SDS011;6187;50.778;6.142;2023-08-31T06:42:28;2.37;;;1.97;;
12248;SDS011;6187;50.778;6.142;2023-08-31T06:44:56;4.13;;;1.43;;
12248;SDS011;6187;50.778;6.142;2023-08-31T06:47:25;2.47;;;1.80;;
12248;SDS011;6187;50.778;6.142;2023-08-31T06:49:54;3.57;;;1.60;;
12248;SDS011;6187;50.778;6.142;2023-08-31T06:52:27;5.47;;;1.60;;
12248;SDS011;6187;50.778;6.142;2023-08-31T06:54:58;3.47;;;1.67;;
12248;SDS011;6187;50.778;6.142;2023-08-31T06:57:27;2.63;;;1.80;;
12248;SDS011;6187;50.778;6.142;2023-08-31T06:59:55;2.67;;;1.67;;
12248;SDS011;6187;50.778;6.142;2023-08-31T07:02:25;2.23;;;1.60;;
12248;SDS011;6187;50.778;6.142;2023-08-31T07:04:54;1.97;;;1.67;;
12248;SDS011;6187;50.778;6.142;2023-08-31T07:07:23;1.90;;;1.50;;
12248;SDS011;6187;50.778;6.142;2023-08-31T07:09:53;1.60;;;1.30;;
12248;SDS011;6187;50.778;6.142;2023-08-31T07:12:22;2.00;;;1.80;;
12248;SDS011;6187;50.778;6.142;2023-08-31T07:14:50;1.93;;;1.80;;
12248;SDS011;6187;50.778;6.142;2023-08-31T07:17:19;2.40;;;1.60;;
12248;SDS011;6187;50.778;6.142;2023-08-31T07:19:48;3.13;;;2.10;;
12248;SDS011;6187;50.778;6.142;2023-08-31T07:22:17;3.17;;;1.77;;
12248;SDS011;6187;50.778;6.142;2023-08-31T07:24:45;3.87;;;1.63;;
12248;SDS011;6187;50.778;6.142;2023-08-31T07:27:16;3.17;;;1.70;;
12248;SDS011;6187;50.778;6.142;2023-08-31T07:29:44;1.70;;;1.60;;
12248;SDS011;6187;50.778;6.142;2023-08-31T07:32:13;3.63;;;1.80;;
12248;SDS011;6187;50.778;6.142;2023-08-31T07:34:42;2.30;;;1.67;;
12248;SDS011;6187;50.778;6.142;2023-08-31T07:37:10;3.70;;;1.80;;
12248;SDS011;6187;50.778;6.142;2023-08-31T07:39:39;3.27;;;1.80;;
12248;SDS011;6187;50.778;6.142;2023-08-31T07:42:07;2.70;;;1.63;;
12248;SDS011;6187;50.778;6.142;2023-08-31T07:44:37;2.90;;;1.50;;
12248;SDS011;6187;50.778;6.142;2023-08-31T07:47:08;2.77;;;2.00;;
12248;SDS011;6187;50.778;6.142;2023-08-31T07:49:37;3.90;;;1.70;;
12248;SDS011;6187;50.778;6.142;2023-08-31T07:52:05;2.43;;;1.70;;
12248;SDS011;6187;50.778;6.142;2023-08-31T07:54:34;1.77;;;1.40;;
12248;SDS011;6187;50.778;6.142;2023-08-31T07:57:03;2.63;;;1.63;;
12248;SDS011;6187;50.778;6.142;2023-08-31T07:59:31;1.67;;;1.57;;
12248;SDS011;6187;50.778;6.142;2023-08-31T08:02:01;3.60;;;1.70;;
12248;SDS011;6187;50.778;6.142;2023-08-31T08:04:30;1.53;;;1.40;;
12248;SDS011;6187;50.778;6.142;2023-08-31T08:06:59;2.00;;;1.80;;
12248;SDS011;6187;50.778;6.142;2023-08-31T08:09:27;2.90;;;1.80;;
12248;SDS011;6187;50.778;6.142;2023-08-31T08:11:56;2.40;;;1.60;;
12248;SDS011;6187;50.778;6.142;2023-08-31T08:14:25;3.63;;;1.40;;
12248;SDS011;6187;50.778;6.142;2023-08-31T08:16:53;3.30;;;1.40;;
12248;SDS011;6187;50.778;6.142;2023-08-31T08:19:24;1.47;;;1.37;;
12248;SDS011;6187;50.778;6.142;2023-08-31T08:21:54;3.13;;;2.03;;
12248;SDS011;6187;50.778;6.142;2023-08-31T08:24:23;2.70;;;1.77;;
12248;SDS011;6187;50.778;6.142;2023-08-31T08:26:51;2.03;;;1.77;;
12248;SDS011;6187;50.778;6.142;2023-08-31T08:29:20;2.70;;;1.93;;
12248;SDS011;6187;50.778;6.142;2023-08-31T08:31:48;1.87;;;1.67;;
12248;SDS011;6187;50.778;6.142;2023-08-31T08:34:17;2.17;;;1.77;;
12248;SDS011;6187;50.778;6.142;2023-08-31T08:36:47;2.10;;;1.53;;
12248;SDS011;6187;50.778;6.142;2023-08-31T08:39:16;2.60;;;1.70;;
12248;SDS011;6187;50.778;6.142;2023-08-31T08:41:44;1.90;;;1.63;;
12248;SDS011;6187;50.778;6.142;2023-08-31T08:44:14;3.30;;;1.80;;
12248;SDS011;6187;50.778;6.142;2023-08-31T08:46:45;3.57;;;1.67;;
12248;SDS011;6187;50.778;6.142;2023-08-31T08:49:14;3.40;;;1.70;;
12248;SDS011;6187;50.778;6.142;2023-08-31T08:51:43;3.33;;;1.63;;
12248;SDS011;6187;50.778;6.142;2023-08-31T08:54:14;2.37;;;1.90;;
12248;SDS011;6187;50.778;6.142;2023-08-31T08:56:43;2.43;;;1.57;;
12248;SDS011;6187;50.778;6.142;2023-08-31T08:59:12;2.00;;;1.57;;
12248;SDS011;6187;50.778;6.142;2023-08-31T09:01:40;1.90;;;1.50;;
12248;SDS011;6187;50.778;6.142;2023-08-31T09:04:09;1.63;;;1.53;;
12248;SDS011;6187;50.778;6.142;2023-08-31T09:06:38;2.83;;;1.43;;
12248;SDS011;6187;50.778;6.142;2023-08-31T09:09:07;2.03;;;1.83;;
12248;SDS011;6187;50.778;6.142;2023-08-31T09:11:37;3.07;;;1.70;;
12248;SDS011;6187;50.778;6.142;2023-08-31T09:14:15;2.40;;;1.90;;
12248;SDS011;6187;50.778;6.142;2023-08-31T09:16:44;2.67;;;1.90;;
12248;SDS011;6187;50.778;6.142;2023-08-31T09:19:17;3.10;;;1.80;;
12248;SDS011;6187;50.778;6.142;2023-08-31T09:21:47;2.77;;;2.20;;
12248;SDS011;6187;50.778;6.142;2023-08-31T09:24:15;3.63;;;2.57;;
12248;SDS011;6187;50.778;6.142;2023-08-31T09:26:47;4.30;;;2.00;;
12248;SDS011;6187;50.778;6.142;2023-08-31T09:29:16;3.70;;;2.40;;
12248;SDS011;6187;50.778;6.142;2023-08-31T09:31:45;4.33;;;2.00;;
12248;SDS011;6187;50.778;6.142;2023-08-31T09:34:14;3.37;;;2.10;;
12248;SDS011;6187;50.778;6.142;2023-08-31T09:36:43;1.73;;;1.60;;
12248;SDS011;6187;50.778;6.142;2023-08-31T09:39:13;3.37;;;1.83;;
12248;SDS011;6187;50.778;6.142;2023-08-31T09:41:53;3.10;;;2.07;;
12248;SDS011;6187;50.778;6.142;2023-08-31T09:44:22;4.17;;;2.10;;
12248;SDS011;6187;50.778;6.142;2023-08-31T09:46:50;4.33;;;2.00;;
12248;SDS011;6187;50.778;6.142;2023-08-31T09:49:20;3.10;;;2.07;;
12248;SDS011;6187;50.778;6.142;2023-08-31T09:51:49;5.77;;;2.67;;
12248;SDS011;6187;50.778;6.142;2023-08-31T09:54:19;2.70;;;1.73;;
12248;SDS011;6187;50.778;6.142;2023-08-31T09:56:48;2.57;;;1.80;;
12248;SDS011;6187;50.778;6.142;2023-08-31T09:59:18;3.27;;;1.90;;
12248;SDS011;6187;50.778;6.142;2023-08-31T10:01:47;3.60;;;1.70;;
12248;SDS011;6187;50.778;6.142;2023-08-31T10:04:16;2.60;;;2.10;;
12248;SDS011;6187;50.778;6.142;2023-08-31T10:06:45;4.43;;;2.30;;
12248;SDS011;6187;50.778;6.142;2023-08-31T10:09:14;2.80;;;1.77;;
12248;SDS011;6187;50.778;6.142;2023-08-31T10:11:43;2.67;;;1.77;;
12248;SDS011;6187;50.778;6.142;2023-08-31T10:14:12;2.47;;;1.77;;
12248;SDS011;6187;50.778;6.142;2023-08-31T10:16:44;2.50;;;1.80;;
12248;SDS011;6187;50.778;6.142;2023-08-31T10:19:13;3.23;;;1.70;;
12248;SDS011;6187;50.778;6.142;2023-08-31T10:21:42;3.27;;;1.80;;
12248;SDS011;6187;50.778;6.142;2023-08-31T10:24:11;4.27;;;1.70;;
12248;SDS011;6187;50.778;6.142;2023-08-31T10:26:40;3.10;;;1.90;;
12248;SDS011;6187;50.778;6.142;2023-08-31T10:29:24;4.67;;;1.90;;
12248;SDS011;6187;50.778;6.142;2023-08-31T10:31:55;3.77;;;2.13;;
12248;SDS011;6187;50.778;6.142;2023-08-31T10:34:34;2.60;;;2.00;;
12248;SDS011;6187;50.778;6.142;2023-08-31T10:37:04;2.93;;;2.23;;
12248;SDS011;6187;50.778;6.142;2023-08-31T10:39:48;2.10;;;1.57;;
12248;SDS011;6187;50.778;6.142;2023-08-31T10:42:16;1.93;;;1.73;;
12248;SDS011;6187;50.778;6.142;2023-08-31T10:44:45;2.33;;;1.77;;
12248;SDS011;6187;50.778;6.142;2023-08-31T10:47:15;2.03;;;1.60;;
12248;SDS011;6187;50.778;6.142;2023-08-31T10:49:49;5.23;;;1.63;;
12248;SDS011;6187;50.778;6.142;2023-08-31T10:52:18;3.43;;;1.60;;
12248;SDS011;6187;50.778;6.142;2023-08-31T10:55:07;2.23;;;1.50;;
12248;SDS011;6187;50.778;6.142;2023-08-31T10:57:36;2.63;;;1.40;;
12248;SDS011;6187;50.778;6.142;2023-08-31T11:00:06;2.70;;;1.67;;
12248;SDS011;6187;50.778;6.142;2023-08-31T11:02:37;2.47;;;1.53;;
12248;SDS011;6187;50.778;6.142;2023-08-31T11:05:06;1.87;;;1.50;;
12248;SDS011;6187;50.778;6.142;2023-08-31T11:07:36;5.43;;;1.53;;
12248;SDS011;6187;50.778;6.142;2023-08-31T11:10:09;2.13;;;1.40;;
12248;SDS011;6187;50.778;6.142;2023-08-31T11:12:38;4.93;;;1.47;;
12248;SDS011;6187;50.778;6.142;2023-08-31T11:15:07;4.00;;;1.87;;
12248;SDS011;6187;50.778;6.142;2023-08-31T11:17:37;3.50;;;1.57;;
12248;SDS011;6187;50.778;6.142;2023-08-31T11:20:07;2.90;;;1.47;;
12248;SDS011;6187;50.778;6.142;2023-08-31T11:22:38;5.50;;;1.70;;
12248;SDS011;6187;50.778;6.142;2023-08-31T11:25:07;2.80;;;1.70;;
12248;SDS011;6187;50.778;6.142;2023-08-31T11:27:36;2.37;;;1.33;;
12248;SDS011;6187;50.778;6.142;2023-08-31T11:30:10;4.33;;;1.60;;
12248;SDS011;6187;50.778;6.142;2023-08-31T11:32:45;2.93;;;1.70;;
12248;SDS011;6187;50.778;6.142;2023-08-31T11:35:14;2.57;;;2.10;;
12248;SDS011;6187;50.778;6.142;2023-08-31T11:37:43;2.83;;;1.93;;
12248;SDS011;6187;50.778;6.142;2023-08-31T11:40:13;2.53;;;1.60;;
12248;SDS011;6187;50.778;6.142;2023-08-31T11:42:42;1.50;;;1.33;;
12248;SDS011;6187;50.778;6.142;2023-08-31T11:45:11;2.57;;;1.67;;
12248;SDS011;6187;50.778;6.142;2023-08-31T11:47:41;1.93;;;1.50;;
12248;SDS011;6187;50.778;6.142;2023-08-31T11:50:11;2.47;;;1.50;;
12248;SDS011;6187;50.778;6.142;2023-08-31T11:52:41;2.50;;;1.50;;
12248;SDS011;6187;50.778;6.142;2023-08-31T11:55:10;1.80;;;1.27;;
12248;SDS011;6187;50.778;6.142;2023-08-31T11:57:39;2.60;;;1.23;;
12248;SDS011;6187;50.778;6.142;2023-08-31T12:00:09;2.37;;;1.23;;
12248;SDS011;6187;50.778;6.142;2023-08-31T12:02:38;3.57;;;1.50;;
12248;SDS011;6187;50.778;6.142;2023-08-31T12:05:06;2.40;;;1.70;;
12248;SDS011;6187;50.778;6.142;2023-08-31T12:07:40;3.03;;;1.40;;
12248;SDS011;6187;50.778;6.142;2023-08-31T12:10:09;3.50;;;1.63;;
12248;SDS011;6187;50.778;6.142;2023-08-31T12:12:37;1.33;;;1.23;;
12248;SDS011;6187;50.778;6.142;2023-08-31T12:15:06;2.37;;;1.43;;
12248;SDS011;6187;50.778;6.142;2023-08-31T12:17:38;2.90;;;1.90;;
12248;SDS011;6187;50.778;6.142;2023-08-31T12:20:07;2.37;;;1.27;;
12248;SDS011;6187;50.778;6.142;2023-08-31T12:22:36;3.33;;;1.50;;
12248;SDS011;6187;50.778;6.142;2023-08-31T12:25:06;1.60;;;1.40;;
12248;SDS011;6187;50.778;6.142;2023-08-31T12:27:35;2.00;;;1.40;;
12248;SDS011;6187;50.778;6.142;2023-08-31T12:30:04;2.23;;;1.40;;
12248;SDS011;6187;50.778;6.142;2023-08-31T12:32:33;1.67;;;1.30;;
12248;SDS011;6187;50.778;6.142;2023-08-31T12:35:02;2.40;;;1.30;;
12248;SDS011;6187;50.778;6.142;2023-08-31T12:37:32;2.90;;;1.30;;
12248;SDS011;6187;50.778;6.142;2023-08-31T12:40:01;3.07;;;1.60;;
12248;SDS011;6187;50.778;6.142;2023-08-31T12:42:33;2.40;;;1.60;;
12248;SDS011;6187;50.778;6.142;2023-08-31T12:45:02;1.53;;;1.40;;
12248;SDS011;6187;50.778;6.142;2023-08-31T12:47:32;2.20;;;1.40;;
12248;SDS011;6187;50.778;6.142;2023-08-31T12:50:00;3.03;;;1.80;;
12248;SDS011;6187;50.778;6.142;2023-08-31T12:52:30;1.67;;;1.57;;
12248;SDS011;6187;50.778;6.142;2023-08-31T12:54:58;2.37;;;1.57;;
12248;SDS011;6187;50.778;6.142;2023-08-31T12:57:27;3.33;;;1.43;;
12248;SDS011;6187;50.778;6.142;2023-08-31T12:59:57;1.77;;;1.30;;
12248;SDS011;6187;50.778;6.142;2023-08-31T13:02:26;2.73;;;1.50;;
12248;SDS011;6187;50.778;6.142;2023-08-31T13:04:55;2.13;;;1.53;;
12248;SDS011;6187;50.778;6.142;2023-08-31T13:07:23;1.87;;;1.40;;
12248;SDS011;6187;50.778;6.142;2023-08-31T13:09:52;2.07;;;1.30;;
12248;SDS011;6187;50.778;6.142;2023-08-31T13:12:20;1.93;;;1.27;;
12248;SDS011;6187;50.778;6.142;2023-08-31T13:14:49;1.40;;;1.10;;
12248;SDS011;6187;50.778;6.142;2023-08-31T13:17:19;2.30;;;1.13;;
12248;SDS011;6187;50.778;6.142;2023-08-31T13:19:49;1.77;;;1.30;;
12248;SDS011;6187;50.778;6.142;2023-08-31T13:22:18;1.67;;;1.20;;
12248;SDS011;6187;50.778;6.142;2023-08-31T13:24:47;2.43;;;1.57;;
12248;SDS011;6187;50.778;6.142;2023-08-31T13:27:16;1.80;;;1.27;;
12248;SDS011;6187;50.778;6.142;2023-08-31T13:29:44;2.60;;;1.20;;
12248;SDS011;6187;50.778;6.142;2023-08-31T13:32:13;1.53;;;1.27;;
12248;SDS011;6187;50.778;6.142;2023-08-31T13:34:43;1.70;;;1.37;;
12248;SDS011;6187;50.778;6.142;2023-08-31T13:37:12;1.30;;;1.13;;
12248;SDS011;6187;50.778;6.142;2023-08-31T13:39:40;2.13;;;1.27;;
12248;SDS011;6187;50.778;6.142;2023-08-31T13:42:09;1.93;;;1.07;;
12248;SDS011;6187;50.778;6.142;2023-08-31T13:44:38;2.13;;;1.40;;
12248;SDS011;6187;50.778;6.142;2023-08-31T13:47:06;1.73;;;1.13;;
12248;SDS011;6187;50.778;6.142;2023-08-31T13:49:36;1.53;;;1.20;;
12248;SDS011;6187;50.778;6.142;2023-08-31T13:52:06;1.60;;;1.33;;
12248;SDS011;6187;50.778;6.142;2023-08-31T13:54:37;2.87;;;1.10;;
12248;SDS011;6187;50.778;6.142;2023-08-31T13:57:05;3.03;;;1.40;;
12248;SDS011;6187;50.778;6.142;2023-08-31T13:59:34;1.40;;;1.10;;
12248;SDS011;6187;50.778;6.142;2023-08-31T14:02:03;2.03;;;1.20;;
12248;SDS011;6187;50.778;6.142;2023-08-31T14:04:31;1.77;;;1.00;;
12248;SDS011;6187;50.778;6.142;2023-08-31T14:07:00;1.87;;;1.00;;
12248;SDS011;6187;50.778;6.142;2023-08-31T14:09:30;1.43;;;1.10;;
12248;SDS011;6187;50.778;6.142;2023-08-31T14:11:59;2.37;;;1.30;;
12248;SDS011;6187;50.778;6.142;2023-08-31T14:14:28;2.30;;;1.40;;
12248;SDS011;6187;50.778;6.142;2023-08-31T14:16:57;1.77;;;1.47;;
12248;SDS011;6187;50.778;6.142;2023-08-31T14:19:25;2.63;;;1.47;;
12248;SDS011;6187;50.778;6.142;2023-08-31T14:21:54;2.83;;;1.33;;
12248;SDS011;6187;50.778;6.142;2023-08-31T14:24:23;1.77;;;1.20;;
12248;SDS011;6187;50.778;6.142;2023-08-31T14:26:52;1.23;;;1.10;;
12248;SDS011;6187;50.778;6.142;2023-08-31T14:29:21;1.67;;;1.27;;
12248;SDS011;6187;50.778;6.142;2023-08-31T14:31:50;1.73;;;1.47;;
12248;SDS011;6187;50.778;6.142;2023-08-31T14:34:21;1.13;;;1.03;;
12248;SDS011;6187;50.778;6.142;2023-08-31T14:36:51;1.50;;;1.17;;
12248;SDS011;6187;50.778;6.142;2023-08-31T14:39:23;2.03;;;1.20;;
12248;SDS011;6187;50.778;6.142;2023-08-31T14:41:57;1.73;;;1.23;;
12248;SDS011;6187;50.778;6.142;2023-08-31T14:44:27;2.00;;;1.30;;
12248;SDS011;6187;50.778;6.142;2023-08-31T14:46:55;1.80;;;1.70;;
12248;SDS011;6187;50.778;6.142;2023-08-31T14:49:24;1.53;;;1.40;;
12248;SDS011;6187;50.778;6.142;2023-08-31T14:51:52;2.27;;;1.50;;
12248;SDS011;6187;50.778;6.142;2023-08-31T14:54:21;2.43;;;1.60;;
12248;SDS011;6187;50.778;6.142;2023-08-31T14:56:50;2.27;;;1.57;;
12248;SDS011;6187;50.778;6.142;2023-08-31T14:59:20;3.10;;;1.50;;
12248;SDS011;6187;50.778;6.142;2023-08-31T15:01:48;2.97;;;1.60;;
12248;SDS011;6187;50.778;6.142;2023-08-31T15:04:17;2.27;;;1.70;;
12248;SDS011;6187;50.778;6.142;2023-08-31T15:06:46;1.80;;;1.33;;
12248;SDS011;6187;50.778;6.142;2023-08-31T15:09:14;3.13;;;1.50;;
12248;SDS011;6187;50.778;6.142;2023-08-31T15:11:43;1.67;;;1.43;;
12248;SDS011;6187;50.778;6.142;2023-08-31T15:14:12;4.23;;;1.70;;